sensor_id;sensor_type;location;lat;lon;timestamp;P1;durP1;ratioP1;P2;durP2;ratioP2
5295;SDS011;2670;42.720;23.336;2024-02-28T00:01:28;35.07;;;15.83;;
5295;SDS011;2670;42.720;23.336;2024-02-28T00:03:55;31.60;;;16.30;;
5295;SDS011;2670;42.720;23.336;2024-02-28T00:06:22;31.23;;;15.37;;
5295;SDS011;2670;42.720;23.336;2024-02-28T00:08:48;27.17;;;14.50;;
5295;SDS011;2670;42.720;23.336;2024-02-28T00:11:16;26.80;;;16.27;;
5295;SDS011;2670;42.720;23.336;2024-02-28T00:13:42;41.07;;;18.97;;
5295;SDS011;2670;42.720;23.336;2024-02-28T00:16:10;36.70;;;19.53;;
5295;SDS011;2670;42.720;23.336;2024-02-28T00:18:37;44.23;;;19.47;;
5295;SDS011;2670;42.720;23.336;2024-02-28T00:21:04;46.40;;;18.23;;
5295;SDS011;2670;42.720;23.336;2024-02-28T00:23:31;31.37;;;17.33;;
5295;SDS011;2670;42.720;23.336;2024-02-28T00:25:58;31.80;;;17.80;;
5295;SDS011;2670;42.720;23.336;2024-02-28T00:28:26;37.33;;;16.30;;
5295;SDS011;2670;42.720;23.336;2024-02-28T00:30:53;36.30;;;20.30;;
5295;SDS011;2670;42.720;23.336;2024-02-28T00:33:21;35.67;;;19.07;;
5295;SDS011;2670;42.720;23.336;2024-02-28T00:35:48;39.73;;;18.77;;
5295;SDS011;2670;42.720;23.336;2024-02-28T00:38:14;52.70;;;23.50;;
5295;SDS011;2670;42.720;23.336;2024-02-28T00:40:41;38.73;;;21.23;;
5295;SDS011;2670;42.720;23.336;2024-02-28T00:43:08;41.23;;;21.97;;
5295;SDS011;2670;42.720;23.336;2024-02-28T00:45:35;41.30;;;21.07;;
5295;SDS011;2670;42.720;23.336;2024-02-28T00:48:02;42.07;;;21.27;;
5295;SDS011;2670;42.720;23.336;2024-02-28T00:50:30;39.47;;;19.67;;
5295;SDS011;2670;42.720;23.336;2024-02-28T00:52:57;42.50;;;22.00;;
5295;SDS011;2670;42.720;23.336;2024-02-28T00:55:24;35.37;;;19.70;;
5295;SDS011;2670;42.720;23.336;2024-02-28T00:57:51;36.40;;;19.63;;
5295;SDS011;2670;42.720;23.336;2024-02-28T01:00:17;34.30;;;20.33;;
5295;SDS011;2670;42.720;23.336;2024-02-28T01:02:44;34.47;;;19.93;;
5295;SDS011;2670;42.720;23.336;2024-02-28T01:05:11;37.07;;;21.50;;
5295;SDS011;2670;42.720;23.336;2024-02-28T01:07:40;40.73;;;20.33;;
5295;SDS011;2670;42.720;23.336;2024-02-28T01:10:07;34.37;;;21.17;;
5295;SDS011;2670;42.720;23.336;2024-02-28T01:12:34;42.80;;;20.70;;
5295;SDS011;2670;42.720;23.336;2024-02-28T01:15:00;38.07;;;21.67;;
5295;SDS011;2670;42.720;23.336;2024-02-28T01:17:27;41.60;;;21.60;;
5295;SDS011;2670;42.720;23.336;2024-02-28T01:19:54;34.70;;;20.80;;
5295;SDS011;2670;42.720;23.336;2024-02-28T01:22:21;35.27;;;19.30;;
5295;SDS011;2670;42.720;23.336;2024-02-28T01:24:49;36.67;;;19.67;;
5295;SDS011;2670;42.720;23.336;2024-02-28T01:27:15;41.87;;;20.13;;
5295;SDS011;2670;42.720;23.336;2024-02-28T01:29:42;39.00;;;19.77;;
5295;SDS011;2670;42.720;23.336;2024-02-28T01:32:09;37.13;;;20.20;;
5295;SDS011;2670;42.720;23.336;2024-02-28T01:34:35;38.33;;;19.50;;
5295;SDS011;2670;42.720;23.336;2024-02-28T01:37:02;33.60;;;20.33;;
5295;SDS011;2670;42.720;23.336;2024-02-28T01:39:29;39.73;;;21.70;;
5295;SDS011;2670;42.720;23.336;2024-02-28T01:41:57;36.97;;;20.97;;
5295;SDS011;2670;42.720;23.336;2024-02-28T01:44:24;41.90;;;21.00;;
5295;SDS011;2670;42.720;23.336;2024-02-28T01:46:50;35.93;;;20.80;;
5295;SDS011;2670;42.720;23.336;2024-02-28T01:49:19;39.27;;;20.60;;
5295;SDS011;2670;42.720;23.336;2024-02-28T01:51:46;36.27;;;20.40;;
5295;SDS011;2670;42.720;23.336;2024-02-28T01:54:14;42.43;;;20.17;;
5295;SDS011;2670;42.720;23.336;2024-02-28T01:56:41;44.30;;;21.30;;
5295;SDS011;2670;42.720;23.336;2024-02-28T01:59:10;38.50;;;21.30;;
5295;SDS011;2670;42.720;23.336;2024-02-28T02:01:38;43.83;;;21.13;;
5295;SDS011;2670;42.720;23.336;2024-02-28T02:04:04;34.13;;;20.23;;
5295;SDS011;2670;42.720;23.336;2024-02-28T02:06:32;31.40;;;18.57;;
5295;SDS011;2670;42.720;23.336;2024-02-28T02:08:59;38.50;;;19.67;;
5295;SDS011;2670;42.720;23.336;2024-02-28T02:11:25;35.43;;;19.87;;
5295;SDS011;2670;42.720;23.336;2024-02-28T02:13:53;42.80;;;22.87;;
5295;SDS011;2670;42.720;23.336;2024-02-28T02:16:21;45.27;;;25.23;;
5295;SDS011;2670;42.720;23.336;2024-02-28T02:18:51;40.20;;;24.60;;
5295;SDS011;2670;42.720;23.336;2024-02-28T02:21:18;43.37;;;22.50;;
5295;SDS011;2670;42.720;23.336;2024-02-28T02:23:49;37.67;;;21.50;;
5295;SDS011;2670;42.720;23.336;2024-02-28T02:26:15;38.70;;;20.77;;
5295;SDS011;2670;42.720;23.336;2024-02-28T02:28:42;35.33;;;19.90;;
5295;SDS011;2670;42.720;23.336;2024-02-28T02:31:10;40.03;;;18.60;;
5295;SDS011;2670;42.720;23.336;2024-02-28T02:33:37;37.37;;;18.30;;
5295;SDS011;2670;42.720;23.336;2024-02-28T02:36:03;30.30;;;17.07;;
5295;SDS011;2670;42.720;23.336;2024-02-28T02:38:30;31.97;;;18.00;;
5295;SDS011;2670;42.720;23.336;2024-02-28T02:40:58;37.50;;;17.10;;
5295;SDS011;2670;42.720;23.336;2024-02-28T02:43:25;35.40;;;18.40;;
5295;SDS011;2670;42.720;23.336;2024-02-28T02:45:52;29.50;;;17.60;;
5295;SDS011;2670;42.720;23.336;2024-02-28T02:48:19;32.53;;;16.70;;
5295;SDS011;2670;42.720;23.336;2024-02-28T02:50:45;31.60;;;17.10;;
5295;SDS011;2670;42.720;23.336;2024-02-28T02:53:12;29.53;;;16.90;;
5295;SDS011;2670;42.720;23.336;2024-02-28T02:55:39;35.10;;;17.20;;
5295;SDS011;2670;42.720;23.336;2024-02-28T02:58:07;35.40;;;18.60;;
5295;SDS011;2670;42.720;23.336;2024-02-28T03:00:34;31.97;;;16.63;;
5295;SDS011;2670;42.720;23.336;2024-02-28T03:03:01;37.70;;;19.20;;
5295;SDS011;2670;42.720;23.336;2024-02-28T03:05:28;50.37;;;18.80;;
5295;SDS011;2670;42.720;23.336;2024-02-28T03:07:54;38.77;;;18.80;;
5295;SDS011;2670;42.720;23.336;2024-02-28T03:10:21;39.20;;;19.93;;
5295;SDS011;2670;42.720;23.336;2024-02-28T03:12:48;33.80;;;18.77;;
5295;SDS011;2670;42.720;23.336;2024-02-28T03:15:16;29.80;;;17.57;;
5295;SDS011;2670;42.720;23.336;2024-02-28T03:17:42;36.27;;;19.87;;
5295;SDS011;2670;42.720;23.336;2024-02-28T03:20:09;35.37;;;20.23;;
5295;SDS011;2670;42.720;23.336;2024-02-28T03:22:38;37.03;;;19.30;;
5295;SDS011;2670;42.720;23.336;2024-02-28T03:25:06;35.87;;;19.87;;
5295;SDS011;2670;42.720;23.336;2024-02-28T03:27:33;35.10;;;18.27;;
5295;SDS011;2670;42.720;23.336;2024-02-28T03:29:59;32.80;;;16.93;;
5295;SDS011;2670;42.720;23.336;2024-02-28T03:32:28;33.53;;;17.87;;
5295;SDS011;2670;42.720;23.336;2024-02-28T03:34:54;36.87;;;18.17;;
5295;SDS011;2670;42.720;23.336;2024-02-28T03:37:21;33.93;;;17.80;;
5295;SDS011;2670;42.720;23.336;2024-02-28T03:39:48;41.40;;;18.67;;
5295;SDS011;2670;42.720;23.336;2024-02-28T03:42:15;37.20;;;18.87;;
5295;SDS011;2670;42.720;23.336;2024-02-28T03:44:41;37.53;;;18.13;;
5295;SDS011;2670;42.720;23.336;2024-02-28T03:47:08;35.23;;;18.43;;
5295;SDS011;2670;42.720;23.336;2024-02-28T03:49:36;32.93;;;18.33;;
5295;SDS011;2670;42.720;23.336;2024-02-28T03:52:03;33.83;;;18.43;;
5295;SDS011;2670;42.720;23.336;2024-02-28T03:54:31;36.27;;;17.63;;
5295;SDS011;2670;42.720;23.336;2024-02-28T03:56:58;33.00;;;18.80;;
5295;SDS011;2670;42.720;23.336;2024-02-28T03:59:25;39.07;;;20.13;;
5295;SDS011;2670;42.720;23.336;2024-02-28T04:01:51;34.80;;;20.80;;
5295;SDS011;2670;42.720;23.336;2024-02-28T04:04:18;34.37;;;21.10;;
5295;SDS011;2670;42.720;23.336;2024-02-28T04:06:46;44.07;;;19.80;;
5295;SDS011;2670;42.720;23.336;2024-02-28T04:09:13;32.20;;;18.80;;
5295;SDS011;2670;42.720;23.336;2024-02-28T04:11:40;36.20;;;18.87;;
5295;SDS011;2670;42.720;23.336;2024-02-28T04:14:08;39.60;;;19.97;;
5295;SDS011;2670;42.720;23.336;2024-02-28T04:16:34;36.40;;;19.20;;
5295;SDS011;2670;42.720;23.336;2024-02-28T04:19:06;29.60;;;16.77;;
5295;SDS011;2670;42.720;23.336;2024-02-28T04:21:33;32.87;;;18.17;;
5295;SDS011;2670;42.720;23.336;2024-02-28T04:24:01;37.67;;;18.37;;
5295;SDS011;2670;42.720;23.336;2024-02-28T04:26:28;30.27;;;18.30;;
5295;SDS011;2670;42.720;23.336;2024-02-28T04:28:55;34.20;;;18.60;;
5295;SDS011;2670;42.720;23.336;2024-02-28T04:31:22;32.60;;;18.30;;
5295;SDS011;2670;42.720;23.336;2024-02-28T04:33:49;36.97;;;19.70;;
5295;SDS011;2670;42.720;23.336;2024-02-28T04:36:15;29.03;;;17.53;;
5295;SDS011;2670;42.720;23.336;2024-02-28T04:38:42;42.90;;;20.60;;
5295;SDS011;2670;42.720;23.336;2024-02-28T04:41:10;36.07;;;20.97;;
5295;SDS011;2670;42.720;23.336;2024-02-28T04:43:37;33.33;;;20.30;;
5295;SDS011;2670;42.720;23.336;2024-02-28T04:46:03;35.10;;;19.20;;
5295;SDS011;2670;42.720;23.336;2024-02-28T04:48:30;52.83;;;20.80;;
5295;SDS011;2670;42.720;23.336;2024-02-28T04:50:57;39.00;;;21.30;;
5295;SDS011;2670;42.720;23.336;2024-02-28T04:53:25;43.33;;;21.80;;
5295;SDS011;2670;42.720;23.336;2024-02-28T04:55:52;37.70;;;21.00;;
5295;SDS011;2670;42.720;23.336;2024-02-28T04:58:20;34.77;;;21.10;;
5295;SDS011;2670;42.720;23.336;2024-02-28T05:00:47;41.03;;;19.33;;
5295;SDS011;2670;42.720;23.336;2024-02-28T05:03:14;31.93;;;18.10;;
5295;SDS011;2670;42.720;23.336;2024-02-28T05:05:41;33.53;;;17.27;;
5295;SDS011;2670;42.720;23.336;2024-02-28T05:08:07;35.83;;;18.80;;
5295;SDS011;2670;42.720;23.336;2024-02-28T05:10:34;36.93;;;17.13;;
5295;SDS011;2670;42.720;23.336;2024-02-28T05:13:01;31.97;;;17.03;;
5295;SDS011;2670;42.720;23.336;2024-02-28T05:15:30;35.63;;;17.90;;
5295;SDS011;2670;42.720;23.336;2024-02-28T05:17:57;31.57;;;18.10;;
5295;SDS011;2670;42.720;23.336;2024-02-28T05:20:23;39.23;;;19.50;;
5295;SDS011;2670;42.720;23.336;2024-02-28T05:22:50;39.00;;;20.53;;
5295;SDS011;2670;42.720;23.336;2024-02-28T05:25:17;35.60;;;20.13;;
5295;SDS011;2670;42.720;23.336;2024-02-28T05:27:44;42.13;;;18.13;;
5295;SDS011;2670;42.720;23.336;2024-02-28T05:30:10;39.13;;;20.13;;
5295;SDS011;2670;42.720;23.336;2024-02-28T05:32:39;35.00;;;19.53;;
5295;SDS011;2670;42.720;23.336;2024-02-28T05:35:06;33.77;;;18.00;;
5295;SDS011;2670;42.720;23.336;2024-02-28T05:37:36;51.90;;;20.33;;
5295;SDS011;2670;42.720;23.336;2024-02-28T05:40:03;49.30;;;22.17;;
5295;SDS011;2670;42.720;23.336;2024-02-28T05:42:32;50.50;;;21.80;;
5295;SDS011;2670;42.720;23.336;2024-02-28T05:44:59;40.80;;;19.77;;
5295;SDS011;2670;42.720;23.336;2024-02-28T05:47:26;40.30;;;22.00;;
5295;SDS011;2670;42.720;23.336;2024-02-28T05:49:55;42.40;;;21.80;;
5295;SDS011;2670;42.720;23.336;2024-02-28T05:52:23;45.90;;;22.67;;
5295;SDS011;2670;42.720;23.336;2024-02-28T05:54:50;38.20;;;22.23;;
5295;SDS011;2670;42.720;23.336;2024-02-28T05:57:17;43.97;;;21.60;;
5295;SDS011;2670;42.720;23.336;2024-02-28T05:59:44;46.27;;;22.83;;
5295;SDS011;2670;42.720;23.336;2024-02-28T06:02:10;46.73;;;24.90;;
5295;SDS011;2670;42.720;23.336;2024-02-28T06:04:38;54.63;;;24.20;;
5295;SDS011;2670;42.720;23.336;2024-02-28T06:07:06;39.87;;;24.00;;
5295;SDS011;2670;42.720;23.336;2024-02-28T06:09:32;53.53;;;25.97;;
5295;SDS011;2670;42.720;23.336;2024-02-28T06:11:59;56.13;;;27.20;;
5295;SDS011;2670;42.720;23.336;2024-02-28T06:14:26;52.47;;;26.10;;
5295;SDS011;2670;42.720;23.336;2024-02-28T06:16:53;44.70;;;24.87;;
5295;SDS011;2670;42.720;23.336;2024-02-28T06:19:20;49.47;;;25.90;;
5295;SDS011;2670;42.720;23.336;2024-02-28T06:21:47;44.00;;;23.37;;
5295;SDS011;2670;42.720;23.336;2024-02-28T06:24:15;52.10;;;22.60;;
5295;SDS011;2670;42.720;23.336;2024-02-28T06:26:41;49.80;;;24.97;;
5295;SDS011;2670;42.720;23.336;2024-02-28T06:29:08;45.70;;;26.37;;
5295;SDS011;2670;42.720;23.336;2024-02-28T06:31:35;60.93;;;29.30;;
5295;SDS011;2670;42.720;23.336;2024-02-28T06:34:02;43.60;;;23.40;;
5295;SDS011;2670;42.720;23.336;2024-02-28T06:36:29;47.30;;;26.20;;
5295;SDS011;2670;42.720;23.336;2024-02-28T06:38:56;55.70;;;28.93;;
5295;SDS011;2670;42.720;23.336;2024-02-28T06:41:24;54.40;;;27.37;;
5295;SDS011;2670;42.720;23.336;2024-02-28T06:43:50;60.53;;;26.20;;
5295;SDS011;2670;42.720;23.336;2024-02-28T06:46:17;59.53;;;27.33;;
5295;SDS011;2670;42.720;23.336;2024-02-28T06:48:44;62.30;;;27.10;;
5295;SDS011;2670;42.720;23.336;2024-02-28T06:51:11;54.07;;;25.27;;
5295;SDS011;2670;42.720;23.336;2024-02-28T06:53:37;53.97;;;23.30;;
5295;SDS011;2670;42.720;23.336;2024-02-28T06:56:04;51.40;;;25.83;;
5295;SDS011;2670;42.720;23.336;2024-02-28T06:58:32;37.57;;;20.97;;
5295;SDS011;2670;42.720;23.336;2024-02-28T07:00:59;37.60;;;21.10;;
5295;SDS011;2670;42.720;23.336;2024-02-28T07:03:26;34.93;;;21.10;;
5295;SDS011;2670;42.720;23.336;2024-02-28T07:05:53;35.80;;;18.83;;
5295;SDS011;2670;42.720;23.336;2024-02-28T07:08:20;42.70;;;19.80;;
5295;SDS011;2670;42.720;23.336;2024-02-28T07:10:47;34.70;;;19.70;;
5295;SDS011;2670;42.720;23.336;2024-02-28T07:13:18;42.80;;;21.80;;
5295;SDS011;2670;42.720;23.336;2024-02-28T07:15:46;40.70;;;20.33;;
5295;SDS011;2670;42.720;23.336;2024-02-28T07:18:14;45.17;;;21.20;;
5295;SDS011;2670;42.720;23.336;2024-02-28T07:20:41;40.80;;;20.50;;
5295;SDS011;2670;42.720;23.336;2024-02-28T07:23:07;43.10;;;20.93;;
5295;SDS011;2670;42.720;23.336;2024-02-28T07:25:34;47.63;;;20.77;;
5295;SDS011;2670;42.720;23.336;2024-02-28T07:28:01;38.77;;;20.00;;
5295;SDS011;2670;42.720;23.336;2024-02-28T07:30:28;40.03;;;21.73;;
5295;SDS011;2670;42.720;23.336;2024-02-28T07:32:57;40.17;;;19.13;;
5295;SDS011;2670;42.720;23.336;2024-02-28T07:35:23;36.13;;;19.60;;
5295;SDS011;2670;42.720;23.336;2024-02-28T07:37:50;37.80;;;19.80;;
5295;SDS011;2670;42.720;23.336;2024-02-28T07:40:17;37.00;;;20.00;;
5295;SDS011;2670;42.720;23.336;2024-02-28T07:42:44;36.07;;;19.43;;
5295;SDS011;2670;42.720;23.336;2024-02-28T07:45:11;40.47;;;20.40;;
5295;SDS011;2670;42.720;23.336;2024-02-28T07:47:38;42.80;;;20.20;;
5295;SDS011;2670;42.720;23.336;2024-02-28T07:50:07;45.00;;;20.43;;
5295;SDS011;2670;42.720;23.336;2024-02-28T07:52:34;36.10;;;21.13;;
5295;SDS011;2670;42.720;23.336;2024-02-28T07:55:02;33.60;;;20.07;;
5295;SDS011;2670;42.720;23.336;2024-02-28T07:57:30;41.23;;;20.93;;
5295;SDS011;2670;42.720;23.336;2024-02-28T07:59:58;40.17;;;19.83;;
5295;SDS011;2670;42.720;23.336;2024-02-28T08:02:25;36.87;;;19.93;;
5295;SDS011;2670;42.720;23.336;2024-02-28T08:04:51;39.03;;;19.50;;
5295;SDS011;2670;42.720;23.336;2024-02-28T08:07:19;34.00;;;19.20;;
5295;SDS011;2670;42.720;23.336;2024-02-28T08:09:46;34.13;;;19.83;;
5295;SDS011;2670;42.720;23.336;2024-02-28T08:12:13;33.30;;;19.70;;
5295;SDS011;2670;42.720;23.336;2024-02-28T08:14:39;34.90;;;17.97;;
5295;SDS011;2670;42.720;23.336;2024-02-28T08:17:06;37.93;;;19.53;;
5295;SDS011;2670;42.720;23.336;2024-02-28T08:19:33;35.30;;;19.90;;
5295;SDS011;2670;42.720;23.336;2024-02-28T08:22:00;31.50;;;18.67;;
5295;SDS011;2670;42.720;23.336;2024-02-28T08:24:28;45.83;;;18.50;;
5295;SDS011;2670;42.720;23.336;2024-02-28T08:26:55;39.60;;;19.63;;
5295;SDS011;2670;42.720;23.336;2024-02-28T08:29:21;38.90;;;18.80;;
5295;SDS011;2670;42.720;23.336;2024-02-28T08:31:48;40.87;;;18.70;;
5295;SDS011;2670;42.720;23.336;2024-02-28T08:34:15;38.37;;;18.23;;
5295;SDS011;2670;42.720;23.336;2024-02-28T08:36:42;35.90;;;18.40;;
5295;SDS011;2670;42.720;23.336;2024-02-28T08:39:09;34.67;;;18.50;;
5295;SDS011;2670;42.720;23.336;2024-02-28T08:41:37;34.80;;;17.00;;
5295;SDS011;2670;42.720;23.336;2024-02-28T08:44:04;27.40;;;15.60;;
5295;SDS011;2670;42.720;23.336;2024-02-28T08:46:31;32.20;;;14.10;;
5295;SDS011;2670;42.720;23.336;2024-02-28T08:48:58;29.87;;;16.37;;
5295;SDS011;2670;42.720;23.336;2024-02-28T08:51:24;35.93;;;16.53;;
5295;SDS011;2670;42.720;23.336;2024-02-28T08:53:52;31.43;;;16.47;;
5295;SDS011;2670;42.720;23.336;2024-02-28T08:56:20;33.20;;;17.07;;
5295;SDS011;2670;42.720;23.336;2024-02-28T08:58:48;28.23;;;15.90;;
5295;SDS011;2670;42.720;23.336;2024-02-28T09:01:15;29.40;;;17.57;;
5295;SDS011;2670;42.720;23.336;2024-02-28T09:03:42;39.93;;;17.23;;
5295;SDS011;2670;42.720;23.336;2024-02-28T09:06:09;34.50;;;17.50;;
5295;SDS011;2670;42.720;23.336;2024-02-28T09:08:35;28.87;;;15.30;;
5295;SDS011;2670;42.720;23.336;2024-02-28T09:11:02;24.83;;;15.87;;
5295;SDS011;2670;42.720;23.336;2024-02-28T09:13:30;28.30;;;17.00;;
5295;SDS011;2670;42.720;23.336;2024-02-28T09:15:58;34.27;;;15.83;;
5295;SDS011;2670;42.720;23.336;2024-02-28T09:18:25;28.43;;;15.77;;
5295;SDS011;2670;42.720;23.336;2024-02-28T09:20:51;32.20;;;15.90;;
5295;SDS011;2670;42.720;23.336;2024-02-28T09:23:18;25.97;;;16.27;;
5295;SDS011;2670;42.720;23.336;2024-02-28T09:25:46;34.70;;;16.07;;
5295;SDS011;2670;42.720;23.336;2024-02-28T09:28:12;33.77;;;15.90;;
5295;SDS011;2670;42.720;23.336;2024-02-28T09:30:41;26.60;;;15.50;;
5295;SDS011;2670;42.720;23.336;2024-02-28T09:33:09;30.30;;;15.60;;
5295;SDS011;2670;42.720;23.336;2024-02-28T09:35:37;22.43;;;13.93;;
5295;SDS011;2670;42.720;23.336;2024-02-28T09:38:03;27.23;;;15.50;;
5295;SDS011;2670;42.720;23.336;2024-02-28T09:40:30;27.17;;;14.43;;
5295;SDS011;2670;42.720;23.336;2024-02-28T09:42:59;21.80;;;14.70;;
5295;SDS011;2670;42.720;23.336;2024-02-28T09:45:27;21.20;;;12.70;;
5295;SDS011;2670;42.720;23.336;2024-02-28T09:47:57;25.10;;;13.50;;
5295;SDS011;2670;42.720;23.336;2024-02-28T09:50:27;27.70;;;14.67;;
5295;SDS011;2670;42.720;23.336;2024-02-28T09:52:53;25.93;;;13.13;;
5295;SDS011;2670;42.720;23.336;2024-02-28T09:55:20;23.20;;;13.13;;
5295;SDS011;2670;42.720;23.336;2024-02-28T09:57:47;21.70;;;13.17;;
5295;SDS011;2670;42.720;23.336;2024-02-28T10:00:15;22.53;;;13.00;;
5295;SDS011;2670;42.720;23.336;2024-02-28T10:02:45;23.40;;;11.63;;
5295;SDS011;2670;42.720;23.336;2024-02-28T10:05:14;18.30;;;9.77;;
5295;SDS011;2670;42.720;23.336;2024-02-28T10:07:42;19.20;;;11.47;;
5295;SDS011;2670;42.720;23.336;2024-02-28T10:10:09;20.00;;;11.73;;
5295;SDS011;2670;42.720;23.336;2024-02-28T10:12:40;14.40;;;9.93;;
5295;SDS011;2670;42.720;23.336;2024-02-28T10:15:08;18.07;;;10.87;;
5295;SDS011;2670;42.720;23.336;2024-02-28T10:17:35;27.83;;;13.10;;
5295;SDS011;2670;42.720;23.336;2024-02-28T10:20:02;20.30;;;10.87;;
5295;SDS011;2670;42.720;23.336;2024-02-28T10:22:33;24.97;;;10.97;;
5295;SDS011;2670;42.720;23.336;2024-02-28T10:25:02;17.40;;;10.80;;
5295;SDS011;2670;42.720;23.336;2024-02-28T10:27:31;19.43;;;10.57;;
5295;SDS011;2670;42.720;23.336;2024-02-28T10:29:58;13.40;;;8.80;;
5295;SDS011;2670;42.720;23.336;2024-02-28T10:32:29;22.27;;;10.80;;
5295;SDS011;2670;42.720;23.336;2024-02-28T10:34:56;17.33;;;10.13;;
5295;SDS011;2670;42.720;23.336;2024-02-28T10:37:25;18.47;;;10.43;;
5295;SDS011;2670;42.720;23.336;2024-02-28T10:39:55;18.13;;;9.40;;
5295;SDS011;2670;42.720;23.336;2024-02-28T10:42:24;16.50;;;9.87;;
5295;SDS011;2670;42.720;23.336;2024-02-28T10:44:53;16.10;;;8.77;;
5295;SDS011;2670;42.720;23.336;2024-02-28T10:47:24;22.97;;;10.87;;
5295;SDS011;2670;42.720;23.336;2024-02-28T10:49:52;25.00;;;11.00;;
5295;SDS011;2670;42.720;23.336;2024-02-28T10:52:19;20.77;;;11.73;;
5295;SDS011;2670;42.720;23.336;2024-02-28T10:54:48;28.07;;;11.43;;
5295;SDS011;2670;42.720;23.336;2024-02-28T10:57:20;20.50;;;10.87;;
5295;SDS011;2670;42.720;23.336;2024-02-28T10:59:51;27.03;;;11.90;;
5295;SDS011;2670;42.720;23.336;2024-02-28T11:02:20;24.23;;;13.00;;
5295;SDS011;2670;42.720;23.336;2024-02-28T11:04:48;15.87;;;9.67;;
5295;SDS011;2670;42.720;23.336;2024-02-28T11:07:19;17.13;;;9.73;;
5295;SDS011;2670;42.720;23.336;2024-02-28T11:09:46;17.20;;;8.50;;
5295;SDS011;2670;42.720;23.336;2024-02-28T11:12:23;17.57;;;9.20;;
5295;SDS011;2670;42.720;23.336;2024-02-28T11:14:57;35.27;;;7.63;;
5295;SDS011;2670;42.720;23.336;2024-02-28T11:17:29;21.10;;;8.03;;
5295;SDS011;2670;42.720;23.336;2024-02-28T11:19:56;21.53;;;7.80;;
5295;SDS011;2670;42.720;23.336;2024-02-28T11:22:23;13.80;;;8.60;;
5295;SDS011;2670;42.720;23.336;2024-02-28T11:24:53;15.80;;;6.63;;
5295;SDS011;2670;42.720;23.336;2024-02-28T11:27:20;11.97;;;7.50;;
5295;SDS011;2670;42.720;23.336;2024-02-28T11:29:47;15.47;;;8.37;;
5295;SDS011;2670;42.720;23.336;2024-02-28T11:32:16;17.13;;;8.20;;
5295;SDS011;2670;42.720;23.336;2024-02-28T11:34:43;14.77;;;8.10;;
5295;SDS011;2670;42.720;23.336;2024-02-28T11:37:10;18.20;;;9.30;;
5295;SDS011;2670;42.720;23.336;2024-02-28T11:39:37;16.70;;;9.47;;
5295;SDS011;2670;42.720;23.336;2024-02-28T11:42:10;12.73;;;8.00;;
5295;SDS011;2670;42.720;23.336;2024-02-28T11:44:38;13.90;;;7.70;;
5295;SDS011;2670;42.720;23.336;2024-02-28T11:47:05;21.83;;;8.10;;
5295;SDS011;2670;42.720;23.336;2024-02-28T11:49:36;16.63;;;9.47;;
5295;SDS011;2670;42.720;23.336;2024-02-28T11:52:03;12.03;;;7.40;;
5295;SDS011;2670;42.720;23.336;2024-02-28T11:54:30;12.47;;;7.40;;
5295;SDS011;2670;42.720;23.336;2024-02-28T11:56:57;13.80;;;6.97;;
5295;SDS011;2670;42.720;23.336;2024-02-28T11:59:23;18.57;;;8.00;;
5295;SDS011;2670;42.720;23.336;2024-02-28T12:01:51;14.03;;;6.17;;
5295;SDS011;2670;42.720;23.336;2024-02-28T12:04:18;11.30;;;5.87;;
5295;SDS011;2670;42.720;23.336;2024-02-28T12:06:46;13.67;;;7.00;;
5295;SDS011;2670;42.720;23.336;2024-02-28T12:09:13;9.53;;;6.57;;
5295;SDS011;2670;42.720;23.336;2024-02-28T12:11:40;14.73;;;6.97;;
5295;SDS011;2670;42.720;23.336;2024-02-28T12:14:07;10.90;;;7.30;;
5295;SDS011;2670;42.720;23.336;2024-02-28T12:16:36;13.20;;;6.40;;
5295;SDS011;2670;42.720;23.336;2024-02-28T12:19:04;19.80;;;7.60;;
5295;SDS011;2670;42.720;23.336;2024-02-28T12:21:34;14.70;;;6.70;;
5295;SDS011;2670;42.720;23.336;2024-02-28T12:24:02;15.03;;;6.53;;
5295;SDS011;2670;42.720;23.336;2024-02-28T12:26:29;14.03;;;6.83;;
5295;SDS011;2670;42.720;23.336;2024-02-28T12:28:56;12.60;;;6.93;;
5295;SDS011;2670;42.720;23.336;2024-02-28T12:31:23;15.37;;;7.43;;
5295;SDS011;2670;42.720;23.336;2024-02-28T12:33:50;12.53;;;6.60;;
5295;SDS011;2670;42.720;23.336;2024-02-28T12:36:17;11.40;;;7.17;;
5295;SDS011;2670;42.720;23.336;2024-02-28T12:38:43;12.20;;;8.43;;
5295;SDS011;2670;42.720;23.336;2024-02-28T12:41:11;16.13;;;7.83;;
5295;SDS011;2670;42.720;23.336;2024-02-28T12:43:38;11.23;;;7.23;;
5295;SDS011;2670;42.720;23.336;2024-02-28T12:46:05;10.47;;;6.73;;
5295;SDS011;2670;42.720;23.336;2024-02-28T12:48:36;11.13;;;6.80;;
5295;SDS011;2670;42.720;23.336;2024-02-28T12:51:03;15.43;;;7.90;;
5295;SDS011;2670;42.720;23.336;2024-02-28T12:53:31;14.00;;;7.00;;
5295;SDS011;2670;42.720;23.336;2024-02-28T12:55:58;13.97;;;8.03;;
5295;SDS011;2670;42.720;23.336;2024-02-28T12:58:26;10.93;;;7.07;;
5295;SDS011;2670;42.720;23.336;2024-02-28T13:00:53;15.73;;;7.17;;
5295;SDS011;2670;42.720;23.336;2024-02-28T13:03:20;15.90;;;6.90;;
5295;SDS011;2670;42.720;23.336;2024-02-28T13:05:46;20.07;;;7.33;;
5295;SDS011;2670;42.720;23.336;2024-02-28T13:08:14;15.20;;;7.60;;
5295;SDS011;2670;42.720;23.336;2024-02-28T13:10:41;19.27;;;7.80;;
5295;SDS011;2670;42.720;23.336;2024-02-28T13:13:08;13.63;;;6.70;;
5295;SDS011;2670;42.720;23.336;2024-02-28T13:15:36;28.30;;;15.33;;
5295;SDS011;2670;42.720;23.336;2024-02-28T13:18:03;26.57;;;7.10;;
5295;SDS011;2670;42.720;23.336;2024-02-28T13:20:34;11.67;;;6.57;;
5295;SDS011;2670;42.720;23.336;2024-02-28T13:23:03;15.17;;;7.40;;
5295;SDS011;2670;42.720;23.336;2024-02-28T13:25:30;26.60;;;6.20;;
5295;SDS011;2670;42.720;23.336;2024-02-28T13:27:56;11.27;;;5.43;;
5295;SDS011;2670;42.720;23.336;2024-02-28T13:30:23;15.77;;;5.77;;
5295;SDS011;2670;42.720;23.336;2024-02-28T13:32:52;14.67;;;7.70;;
5295;SDS011;2670;42.720;23.336;2024-02-28T13:35:18;9.70;;;6.40;;
5295;SDS011;2670;42.720;23.336;2024-02-28T13:37:45;14.10;;;6.17;;
5295;SDS011;2670;42.720;23.336;2024-02-28T13:40:12;19.67;;;6.97;;
5295;SDS011;2670;42.720;23.336;2024-02-28T13:42:39;12.03;;;6.03;;
5295;SDS011;2670;42.720;23.336;2024-02-28T13:45:06;21.60;;;6.50;;
5295;SDS011;2670;42.720;23.336;2024-02-28T13:47:34;10.90;;;5.33;;
5295;SDS011;2670;42.720;23.336;2024-02-28T13:50:03;10.17;;;5.80;;
5295;SDS011;2670;42.720;23.336;2024-02-28T13:52:30;8.47;;;5.50;;
5295;SDS011;2670;42.720;23.336;2024-02-28T13:54:57;13.60;;;9.47;;
5295;SDS011;2670;42.720;23.336;2024-02-28T13:57:24;16.33;;;6.43;;
5295;SDS011;2670;42.720;23.336;2024-02-28T13:59:51;9.30;;;6.10;;
5295;SDS011;2670;42.720;23.336;2024-02-28T14:02:19;9.83;;;6.77;;
5295;SDS011;2670;42.720;23.336;2024-02-28T14:04:46;14.40;;;7.10;;
5295;SDS011;2670;42.720;23.336;2024-02-28T14:07:15;9.43;;;5.23;;
5295;SDS011;2670;42.720;23.336;2024-02-28T14:09:42;11.30;;;5.70;;
5295;SDS011;2670;42.720;23.336;2024-02-28T14:12:10;17.83;;;6.30;;
5295;SDS011;2670;42.720;23.336;2024-02-28T14:14:37;11.47;;;5.77;;
5295;SDS011;2670;42.720;23.336;2024-02-28T14:17:04;14.20;;;5.63;;
5295;SDS011;2670;42.720;23.336;2024-02-28T14:19:31;13.00;;;5.63;;
5295;SDS011;2670;42.720;23.336;2024-02-28T14:21:59;11.00;;;5.83;;
5295;SDS011;2670;42.720;23.336;2024-02-28T14:24:27;11.63;;;5.90;;
5295;SDS011;2670;42.720;23.336;2024-02-28T14:26:54;9.00;;;4.97;;
5295;SDS011;2670;42.720;23.336;2024-02-28T14:29:20;11.93;;;5.20;;
5295;SDS011;2670;42.720;23.336;2024-02-28T14:31:47;11.00;;;6.53;;
5295;SDS011;2670;42.720;23.336;2024-02-28T14:34:14;10.53;;;6.80;;
5295;SDS011;2670;42.720;23.336;2024-02-28T14:36:40;11.40;;;6.73;;
5295;SDS011;2670;42.720;23.336;2024-02-28T14:39:10;10.70;;;5.47;;